Time;durP1;ratioP1;P1;durP2;ratioP2;P2;SDS_P1;SDS_P2;PMS_P1;PMS_P2;Temp;Humidity;BMP_temperature;BMP_pressure;BME280_temperature;BME280_humidity;BME280_pressure;Samples;Min_cycle;Max_cycle;Signal;HPM_P1;HPM_P2
2023/07/15 00:00:28;;;;;;;;;;;24.30;63.90;;;;;;4162763;28;19939;-43
2023/07/15 00:03:09;;;;;;;;;;;24.30;63.90;;;;;;4187717;28;19936;-48
2023/07/15 00:05:50;;;;;;;;;;;24.30;64.00;;;;;;4187848;28;20045;-46
2023/07/15 00:08:31;;;;;;;;;;;24.30;64.00;;;;;;4167127;28;19932;-45
2023/07/15 00:11:13;;;;;;;;;;;24.30;64.90;;;;;;4164888;28;19932;-46
2023/07/15 00:13:54;;;;;;;;;;;24.30;64.00;;;;;;4171517;28;19932;-44
2023/07/15 00:16:36;;;;;;;;;;;24.30;64.10;;;;;;4171598;28;19958;-44
2023/07/15 00:19:19;;;;;;;;;;;24.30;64.10;;;;;;4171607;28;19931;-45
2023/07/15 00:21:59;;;;;;;;;;;24.20;64.10;;;;;;4154674;28;19936;-44
2023/07/15 00:24:40;;;;;;;;;;;24.20;64.10;;;;;;4155222;28;19978;-44
2023/07/15 00:27:21;;;;;;;;;;;24.20;64.10;;;;;;4169086;28;19936;-45
2023/07/15 00:30:02;;;;;;;;;;;24.20;64.10;;;;;;4171832;28;19934;-44
2023/07/15 00:32:46;;;;;;;;;;;24.20;64.20;;;;;;4171519;28;19978;-45
2023/07/15 00:35:29;;;;;;;;;;;24.20;64.10;;;;;;4170454;28;19936;-47
2023/07/15 00:38:11;;;;;;;;;;;24.20;64.10;;;;;;4171668;28;19936;-45
2023/07/15 00:40:52;;;;;;;;;;;24.10;64.10;;;;;;4176771;28;20021;-46
2023/07/15 00:43:52;;;;;;;;;;;24.20;64.10;;;;;;4177088;28;20287;-44
2023/07/15 00:46:50;;;;;;;;;;;24.20;64.10;;;;;;4170897;28;19932;-43
2023/07/15 00:49:33;;;;;;;;;;;24.10;63.90;;;;;;4169028;28;19936;-46
2023/07/15 00:52:16;;;;;;;;;;;24.20;64.00;;;;;;4170848;28;20026;-49
2023/07/15 00:54:57;;;;;;;;;;;24.20;64.00;;;;;;4154558;28;19932;-46
2023/07/15 00:57:38;;;;;;;;;;;24.10;64.00;;;;;;4153406;28;19936;-48
2023/07/15 01:00:19;;;;;;;;;;;24.10;64.00;;;;;;4158592;28;19932;-50
2023/07/15 01:03:00;;;;;;;;;;;24.10;64.00;;;;;;4180299;28;19939;-45
2023/07/15 01:05:43;;;;;;;;;;;24.10;64.00;;;;;;4154326;28;19955;-48
2023/07/15 01:08:23;;;;;;;;;;;24.10;64.00;;;;;;4153630;28;19948;-48
2023/07/15 01:11:06;;;;;;;;;;;24.10;63.90;;;;;;4170217;28;20066;-50
2023/07/15 01:13:47;;;;;;;;;;;24.10;63.80;;;;;;4168844;28;19932;-48
2023/07/15 01:16:29;;;;;;;;;;;24.00;63.70;;;;;;4151842;28;19936;-46
2023/07/15 01:19:10;;;;;;;;;;;24.10;64.70;;;;;;4151461;28;19932;-49
2023/07/15 01:21:53;;;;;;;;;;;24.10;64.80;;;;;;4167898;28;19944;-48
2023/07/15 01:24:36;;;;;;;;;;;24.10;63.90;;;;;;4160369;28;19932;-52
2023/07/15 01:27:16;;;;;;;;;;;24.00;63.90;;;;;;4157472;28;19936;-45
2023/07/15 01:29:58;;;;;;;;;;;24.10;63.80;;;;;;4157476;28;20040;-51
2023/07/15 01:32:39;;;;;;;;;;;24.10;63.60;;;;;;4171316;28;19931;-47
2023/07/15 01:35:20;;;;;;;;;;;24.00;64.50;;;;;;4168975;28;19948;-44
2023/07/15 01:38:01;;;;;;;;;;;24.00;63.50;;;;;;4157948;28;19936;-45
2023/07/15 01:40:43;;;;;;;;;;;24.00;63.50;;;;;;4169668;28;19991;-46
2023/07/15 01:43:24;;;;;;;;;;;24.00;63.40;;;;;;4158058;28;19936;-49
2023/07/15 01:46:06;;;;;;;;;;;24.00;63.40;;;;;;4157919;28;19936;-47
2023/07/15 01:48:48;;;;;;;;;;;24.00;63.30;;;;;;4156678;28;20415;-48
2023/07/15 01:51:28;;;;;;;;;;;24.00;63.20;;;;;;4176756;28;20642;-48
2023/07/15 01:54:11;;;;;;;;;;;24.00;63.00;;;;;;4174241;28;19936;-46
2023/07/15 01:56:54;;;;;;;;;;;24.00;62.80;;;;;;4173455;28;19936;-49
2023/07/15 01:59:35;;;;;;;;;;;24.00;63.80;;;;;;4172914;28;20433;-46
2023/07/15 02:02:15;;;;;;;;;;;24.00;62.90;;;;;;4156288;28;20745;-47
2023/07/15 02:04:56;;;;;;;;;;;24.00;63.40;;;;;;4156850;28;19936;-48
2023/07/15 02:07:39;;;;;;;;;;;24.00;63.00;;;;;;4157231;28;19937;-46
2023/07/15 02:10:20;;;;;;;;;;;24.00;63.00;;;;;;4160959;28;20061;-45
2023/07/15 02:13:02;;;;;;;;;;;24.00;63.10;;;;;;4141423;28;20007;-45
2023/07/15 02:15:42;;;;;;;;;;;23.90;63.00;;;;;;4157258;28;19936;-46
2023/07/15 02:18:25;;;;;;;;;;;24.00;63.00;;;;;;4139575;28;19952;-44
2023/07/15 02:21:06;;;;;;;;;;;24.00;63.00;;;;;;4154134;28;20071;-49
2023/07/15 02:23:48;;;;;;;;;;;24.00;62.90;;;;;;4157228;28;19932;-46
2023/07/15 02:26:28;;;;;;;;;;;23.90;62.80;;;;;;4141902;28;19935;-46
2023/07/15 02:29:13;;;;;;;;;;;24.00;62.80;;;;;;4139691;28;20084;-52
2023/07/15 02:31:54;;;;;;;;;;;23.90;62.70;;;;;;4171007;28;19974;-48
2023/07/15 02:34:34;;;;;;;;;;;23.90;62.70;;;;;;4168719;28;20014;-46
2023/07/15 02:37:15;;;;;;;;;;;23.90;62.70;;;;;;4172442;28;19935;-52
2023/07/15 02:39:57;;;;;;;;;;;24.00;62.80;;;;;;4155270;28;19932;-48
2023/07/15 02:42:38;;;;;;;;;;;23.90;62.80;;;;;;4171937;28;19935;-45
2023/07/15 02:45:21;;;;;;;;;;;24.00;62.80;;;;;;4173128;28;20134;-46
2023/07/15 02:48:03;;;;;;;;;;;24.00;62.80;;;;;;4171662;28;19935;-47
2023/07/15 02:50:44;;;;;;;;;;;23.90;62.80;;;;;;4171907;28;19935;-45
2023/07/15 02:53:26;;;;;;;;;;;23.90;62.70;;;;;;4140378;28;20399;-46
2023/07/15 02:56:07;;;;;;;;;;;23.90;62.70;;;;;;4139150;28;19936;-46
2023/07/15 02:58:47;;;;;;;;;;;24.00;62.70;;;;;;4128108;28;20395;-47
2023/07/15 03:01:29;;;;;;;;;;;23.90;62.70;;;;;;4155539;28;20433;-51
2023/07/15 03:04:11;;;;;;;;;;;23.90;62.70;;;;;;4156279;28;19932;-46
2023/07/15 03:06:52;;;;;;;;;;;23.90;62.70;;;;;;4155894;28;19983;-48
2023/07/15 03:09:34;;;;;;;;;;;23.90;62.80;;;;;;4149281;28;19959;-46
2023/07/15 03:12:15;;;;;;;;;;;23.90;62.80;;;;;;4170798;28;19932;-47
2023/07/15 03:14:57;;;;;;;;;;;23.90;62.80;;;;;;4172802;28;19936;-50
2023/07/15 03:17:39;;;;;;;;;;;23.90;62.80;;;;;;4171495;28;19936;-49
2023/07/15 03:20:21;;;;;;;;;;;23.90;62.80;;;;;;4166578;28;20118;-45
2023/07/15 03:23:02;;;;;;;;;;;23.90;62.80;;;;;;4182029;28;19931;-51
2023/07/15 03:25:43;;;;;;;;;;;23.90;63.70;;;;;;4172361;28;19936;-45
2023/07/15 03:28:23;;;;;;;;;;;23.90;62.80;;;;;;4172381;28;19931;-44
2023/07/15 03:31:04;;;;;;;;;;;23.90;62.80;;;;;;4183208;28;19952;-45
2023/07/15 03:33:46;;;;;;;;;;;23.90;62.80;;;;;;4187687;28;19931;-45
2023/07/15 03:36:27;;;;;;;;;;;23.90;62.80;;;;;;4188882;28;20086;-47
2023/07/15 03:39:10;;;;;;;;;;;23.90;62.70;;;;;;4182791;28;19931;-46
2023/07/15 03:41:52;;;;;;;;;;;23.90;62.70;;;;;;4157666;28;20079;-44
2023/07/15 03:44:33;;;;;;;;;;;23.90;62.70;;;;;;4177015;28;19931;-45
2023/07/15 03:47:14;;;;;;;;;;;23.90;62.70;;;;;;4170099;28;20391;-45
2023/07/15 03:49:59;;;;;;;;;;;23.90;63.70;;;;;;4169833;28;19932;-46
2023/07/15 03:52:39;;;;;;;;;;;23.90;62.70;;;;;;4171573;28;19936;-50
2023/07/15 03:55:20;;;;;;;;;;;23.90;62.70;;;;;;4171254;28;19940;-46
2023/07/15 03:58:01;;;;;;;;;;;23.90;62.70;;;;;;4170716;28;20059;-46
2023/07/15 04:00:42;;;;;;;;;;;23.90;62.70;;;;;;4159274;28;20453;-46
2023/07/15 04:03:22;;;;;;;;;;;23.90;62.70;;;;;;4159453;28;19932;-47
2023/07/15 04:06:05;;;;;;;;;;;23.90;62.70;;;;;;4171272;28;20298;-46
2023/07/15 04:08:46;;;;;;;;;;;23.90;62.70;;;;;;4167373;28;19932;-48
2023/07/15 04:11:27;;;;;;;;;;;23.90;62.70;;;;;;4148534;28;19937;-48
2023/07/15 04:14:08;;;;;;;;;;;23.90;63.60;;;;;;4154884;28;20395;-45
2023/07/15 04:16:49;;;;;;;;;;;23.90;62.70;;;;;;4143652;28;19932;-44
2023/07/15 04:19:30;;;;;;;;;;;23.90;62.80;;;;;;4159126;28;20334;-44
2023/07/15 04:22:13;;;;;;;;;;;23.90;62.80;;;;;;4170398;28;19939;-51
2023/07/15 04:24:54;;;;;;;;;;;23.90;62.80;;;;;;4171535;28;19932;-46
2023/07/15 04:27:36;;;;;;;;;;;23.90;62.80;;;;;;4169995;28;25690;-48
2023/07/15 04:30:17;;;;;;;;;;;23.90;62.80;;;;;;4169396;28;19932;-48
2023/07/15 04:32:58;;;;;;;;;;;23.90;63.10;;;;;;4158400;28;19932;-49
2023/07/15 04:35:40;;;;;;;;;;;23.90;63.10;;;;;;4169524;28;19936;-50
2023/07/15 04:38:23;;;;;;;;;;;23.90;63.10;;;;;;4171824;28;19935;-52
2023/07/15 04:41:04;;;;;;;;;;;23.90;63.10;;;;;;4156688;28;20047;-47
2023/07/15 04:43:44;;;;;;;;;;;23.90;63.00;;;;;;4166836;28;19936;-50
2023/07/15 04:46:25;;;;;;;;;;;23.90;62.90;;;;;;4169406;28;20441;-50
2023/07/15 04:49:06;;;;;;;;;;;23.90;62.90;;;;;;4172680;28;20031;-51
2023/07/15 04:51:47;;;;;;;;;;;24.00;62.80;;;;;;4149175;28;20275;-52
2023/07/15 04:54:29;;;;;;;;;;;23.90;62.70;;;;;;4154398;28;19983;-52
2023/07/15 04:57:11;;;;;;;;;;;24.00;62.70;;;;;;4154825;28;19937;-52
2023/07/15 04:59:53;;;;;;;;;;;24.00;62.70;;;;;;4159796;28;19932;-49
2023/07/15 05:02:34;;;;;;;;;;;24.00;62.60;;;;;;4168143;28;20429;-48
2023/07/15 05:05:15;;;;;;;;;;;24.00;62.50;;;;;;4170214;28;19936;-49
2023/07/15 05:08:00;;;;;;;;;;;24.00;62.40;;;;;;4170497;28;19935;-51
2023/07/15 05:10:43;;;;;;;;;;;24.00;62.20;;;;;;4164215;28;20459;-49
2023/07/15 05:13:25;;;;;;;;;;;24.00;62.20;;;;;;4169399;28;19932;-52
2023/07/15 05:16:06;;;;;;;;;;;24.00;62.20;;;;;;4166723;28;20055;-47
2023/07/15 05:18:47;;;;;;;;;;;24.00;62.30;;;;;;4163168;28;20401;-48
2023/07/15 05:21:29;;;;;;;;;;;24.00;62.40;;;;;;4150490;28;19948;-51
2023/07/15 05:24:09;;;;;;;;;;;23.90;62.30;;;;;;4169065;28;19932;-50
2023/07/15 05:26:52;;;;;;;;;;;23.90;62.20;;;;;;4186916;28;19931;-47
2023/07/15 05:29:33;;;;;;;;;;;24.00;62.10;;;;;;4180578;28;19974;-47
2023/07/15 05:32:13;;;;;;;;;;;24.00;62.10;;;;;;4167168;28;20446;-51
2023/07/15 05:34:54;;;;;;;;;;;24.00;62.10;;;;;;4170021;28;19932;-48
2023/07/15 05:37:35;;;;;;;;;;;24.10;62.00;;;;;;4180143;28;19931;-50
2023/07/15 05:40:16;;;;;;;;;;;24.10;61.60;;;;;;4175388;28;19935;-52
2023/07/15 05:42:58;;;;;;;;;;;24.20;62.20;;;;;;4170593;28;20018;-50
2023/07/15 05:45:39;;;;;;;;;;;24.30;61.00;;;;;;4170843;28;20295;-49
2023/07/15 05:48:19;;;;;;;;;;;24.30;60.90;;;;;;4174663;28;20449;-51
2023/07/15 05:51:01;;;;;;;;;;;24.40;60.90;;;;;;4169268;28;19936;-49
2023/07/15 05:53:43;;;;;;;;;;;24.50;60.70;;;;;;4163910;28;19935;-48
2023/07/15 05:56:24;;;;;;;;;;;24.60;60.60;;;;;;4173648;28;20082;-51
2023/07/15 05:59:07;;;;;;;;;;;24.60;60.40;;;;;;4161860;28;19932;-50
2023/07/15 06:01:48;;;;;;;;;;;24.70;60.30;;;;;;4170758;28;20391;-51
2023/07/15 06:04:28;;;;;;;;;;;24.70;60.00;;;;;;4166910;28;19932;-48
2023/07/15 06:07:09;;;;;;;;;;;24.70;60.50;;;;;;4169216;28;19936;-45
2023/07/15 06:09:51;;;;;;;;;;;24.80;59.50;;;;;;4185754;28;20323;-43
2023/07/15 06:12:32;;;;;;;;;;;24.90;59.40;;;;;;4182225;28;19934;-45
2023/07/15 06:15:15;;;;;;;;;;;24.90;59.20;;;;;;4167491;28;20368;-50
2023/07/15 06:17:57;;;;;;;;;;;24.90;59.10;;;;;;4156667;28;20071;-46
2023/07/15 06:20:38;;;;;;;;;;;25.00;59.00;;;;;;4156412;28;19936;-45
2023/07/15 06:23:19;;;;;;;;;;;25.00;58.90;;;;;;4165167;28;19935;-46
2023/07/15 06:26:00;;;;;;;;;;;25.00;58.70;;;;;;4171282;28;20378;-46
2023/07/15 06:28:41;;;;;;;;;;;25.10;58.70;;;;;;4172921;28;19936;-45
2023/07/15 06:31:23;;;;;;;;;;;25.10;58.50;;;;;;4173240;28;19955;-46
2023/07/15 06:34:04;;;;;;;;;;;25.20;58.50;;;;;;4163999;28;19939;-50
2023/07/15 06:36:45;;;;;;;;;;;25.20;58.40;;;;;;4169978;28;19935;-48
2023/07/15 06:39:26;;;;;;;;;;;25.20;58.40;;;;;;4163792;28;20403;-51
2023/07/15 06:42:07;;;;;;;;;;;25.20;58.40;;;;;;4156329;28;20398;-51
2023/07/15 06:44:49;;;;;;;;;;;25.20;58.50;;;;;;4155257;28;19935;-50
2023/07/15 06:47:31;;;;;;;;;;;25.20;58.50;;;;;;4156641;28;19936;-47
2023/07/15 06:50:12;;;;;;;;;;;25.20;58.60;;;;;;4168151;28;19931;-49
2023/07/15 06:52:53;;;;;;;;;;;25.30;58.90;;;;;;4156473;28;20079;-47
2023/07/15 06:55:34;;;;;;;;;;;25.30;58.90;;;;;;4155115;28;19933;-45
2023/07/15 06:58:15;;;;;;;;;;;25.30;59.00;;;;;;4156145;28;19971;-45
2023/07/15 07:00:56;;;;;;;;;;;25.30;59.00;;;;;;4169068;28;20486;-45
2023/07/15 07:03:38;;;;;;;;;;;25.30;59.20;;;;;;4172877;28;19932;-52
2023/07/15 07:06:20;;;;;;;;;;;25.30;59.10;;;;;;4170895;28;19998;-50
2023/07/15 07:09:01;;;;;;;;;;;25.40;59.20;;;;;;4170514;28;19939;-47
2023/07/15 07:11:41;;;;;;;;;;;25.30;59.10;;;;;;4174359;28;19936;-49
2023/07/15 07:14:23;;;;;;;;;;;25.40;59.10;;;;;;4188990;28;20453;-49
2023/07/15 07:17:04;;;;;;;;;;;25.40;59.30;;;;;;4188875;28;20062;-49
2023/07/15 07:19:47;;;;;;;;;;;25.40;59.40;;;;;;4185532;28;19932;-48
2023/07/15 07:22:27;;;;;;;;;;;25.50;60.20;;;;;;4155032;28;19936;-49
2023/07/15 07:25:09;;;;;;;;;;;25.50;59.30;;;;;;4155799;28;20061;-49
2023/07/15 07:27:50;;;;;;;;;;;25.50;59.30;;;;;;4155761;28;19994;-48
2023/07/15 07:30:31;;;;;;;;;;;25.60;59.40;;;;;;4165415;28;19932;-54
2023/07/15 07:33:12;;;;;;;;;;;25.60;59.40;;;;;;4168585;28;19932;-51
2023/07/15 07:35:55;;;;;;;;;;;25.50;59.40;;;;;;4155180;28;19936;-49
2023/07/15 07:38:35;;;;;;;;;;;25.60;59.50;;;;;;4146436;28;19935;-53
2023/07/15 07:41:16;;;;;;;;;;;25.60;59.50;;;;;;4155506;28;20695;-50
2023/07/15 07:43:57;;;;;;;;;;;25.60;59.70;;;;;;4162255;28;20062;-53
2023/07/15 07:46:38;;;;;;;;;;;25.60;60.60;;;;;;4172254;28;20390;-48
2023/07/15 07:49:19;;;;;;;;;;;25.60;59.90;;;;;;4171986;28;19935;-48
2023/07/15 07:52:02;;;;;;;;;;;25.60;60.10;;;;;;4171538;28;19933;-46
2023/07/15 07:54:43;;;;;;;;;;;25.60;60.10;;;;;;4182249;28;19931;-45
2023/07/15 07:57:24;;;;;;;;;;;25.60;60.20;;;;;;4188326;28;19936;-45
2023/07/15 08:00:05;;;;;;;;;;;25.60;60.20;;;;;;4183679;28;19931;-46
2023/07/15 08:02:46;;;;;;;;;;;25.60;60.30;;;;;;4154905;28;19986;-48
2023/07/15 08:05:27;;;;;;;;;;;25.60;60.30;;;;;;4187827;28;19935;-48
2023/07/15 08:08:11;;;;;;;;;;;25.60;60.30;;;;;;4187935;28;20021;-50
2023/07/15 08:10:53;;;;;;;;;;;25.70;60.40;;;;;;4171682;28;20626;-47
2023/07/15 08:13:34;;;;;;;;;;;25.70;60.50;;;;;;4152283;28;19931;-49
2023/07/15 08:16:31;;;;;;;;;;;25.70;60.40;;;;;;4187774;28;20295;-48
2023/07/15 08:19:12;;;;;;;;;;;25.70;61.40;;;;;;4166653;28;19978;-47
2023/07/15 08:21:53;;;;;;;;;;;25.70;60.40;;;;;;4153847;28;19999;-50
2023/07/15 08:24:35;;;;;;;;;;;25.70;60.50;;;;;;4163278;28;20010;-50
2023/07/15 08:27:16;;;;;;;;;;;25.80;60.60;;;;;;4171844;28;20004;-54
2023/07/15 08:29:57;;;;;;;;;;;25.80;60.60;;;;;;4171421;28;20409;-54
2023/07/15 08:32:37;;;;;;;;;;;25.80;60.80;;;;;;4154588;28;19936;-49
2023/07/15 08:35:18;;;;;;;;;;;25.80;60.90;;;;;;4165343;28;19932;-49
2023/07/15 08:37:59;;;;;;;;;;;25.90;60.90;;;;;;4175796;28;19932;-54
2023/07/15 08:40:44;;;;;;;;;;;25.80;60.90;;;;;;4176501;28;20058;-52
2023/07/15 08:43:25;;;;;;;;;;;25.90;61.00;;;;;;4175792;28;20433;-49
2023/07/15 08:46:08;;;;;;;;;;;25.90;61.00;;;;;;4176518;28;19931;-51
2023/07/15 08:48:49;;;;;;;;;;;25.90;61.10;;;;;;4175969;28;20010;-51
2023/07/15 08:51:31;;;;;;;;;;;25.90;62.00;;;;;;4176077;28;20009;-55
2023/07/15 08:54:13;;;;;;;;;;;26.00;61.10;;;;;;4174881;28;20702;-54
2023/07/15 08:56:55;;;;;;;;;;;26.00;61.10;;;;;;4174241;28;20013;-52
2023/07/15 08:59:35;;;;;;;;;;;26.00;61.90;;;;;;4158755;28;19936;-50
2023/07/15 09:02:16;;;;;;;;;;;26.00;61.20;;;;;;4159609;28;20375;-50
2023/07/15 09:04:57;;;;;;;;;;;26.10;61.20;;;;;;4183603;28;19999;-55
2023/07/15 09:07:45;;;;;;;;;;;26.10;62.10;;;;;;4182819;28;20344;-52
2023/07/15 09:10:28;;;;;;;;;;;26.10;61.30;;;;;;4190071;28;20437;-51
2023/07/15 09:13:10;;;;;;;;;;;26.10;61.30;;;;;;4187881;28;19936;-54
2023/07/15 09:15:50;;;;;;;;;;;26.20;61.20;;;;;;4191999;28;19950;-53
2023/07/15 09:18:31;;;;;;;;;;;26.10;61.00;;;;;;4191649;28;19935;-53
2023/07/15 09:21:14;;;;;;;;;;;26.20;61.10;;;;;;4168351;28;20066;-51
2023/07/15 09:24:00;;;;;;;;;;;26.20;61.00;;;;;;4174614;28;19936;-51
2023/07/15 09:26:53;;;;;;;;;;;26.20;61.20;;;;;;4158585;28;19951;-53
2023/07/15 09:29:35;;;;;;;;;;;26.20;62.00;;;;;;4158869;28;19947;-54
2023/07/15 09:32:21;;;;;;;;;;;26.20;61.10;;;;;;4176036;28;19936;-56
2023/07/15 09:35:03;;;;;;;;;;;26.20;61.20;;;;;;4164458;28;19932;-54
2023/07/15 09:37:47;;;;;;;;;;;26.20;61.20;;;;;;4183529;28;20399;-51
2023/07/15 09:40:28;;;;;;;;;;;26.30;61.50;;;;;;4197832;28;19936;-51
2023/07/15 09:43:08;;;;;;;;;;;26.30;61.60;;;;;;4175931;28;20514;-52
2023/07/15 09:45:51;;;;;;;;;;;26.30;61.60;;;;;;4177690;28;19932;-45
2023/07/15 09:48:32;;;;;;;;;;;26.40;61.90;;;;;;4194648;28;19935;-45
2023/07/15 09:51:15;;;;;;;;;;;26.40;62.10;;;;;;4160725;28;19936;-50
2023/07/15 09:53:56;;;;;;;;;;;26.40;62.00;;;;;;4161629;28;20394;-52
2023/07/15 09:56:41;;;;;;;;;;;26.50;63.10;;;;;;4165961;28;19967;-55
2023/07/15 09:59:23;;;;;;;;;;;26.50;62.60;;;;;;4183464;28;19987;-56
2023/07/15 10:02:07;;;;;;;;;;;26.50;63.20;;;;;;4195049;28;20335;-55
2023/07/15 10:04:49;;;;;;;;;;;26.50;63.40;;;;;;4194593;28;19931;-52
2023/07/15 10:07:30;;;;;;;;;;;26.50;63.40;;;;;;4177405;28;19936;-51
2023/07/15 10:10:11;;;;;;;;;;;26.60;63.40;;;;;;4177793;28;20391;-51
2023/07/15 10:12:52;;;;;;;;;;;26.50;63.40;;;;;;4172936;28;19932;-48
2023/07/15 10:15:33;;;;;;;;;;;26.60;63.40;;;;;;4172541;28;19936;-49
2023/07/15 10:18:17;;;;;;;;;;;26.50;63.40;;;;;;4172629;28;19940;-51
2023/07/15 10:20:59;;;;;;;;;;;26.50;63.50;;;;;;4171753;28;19935;-52
2023/07/15 10:23:40;;;;;;;;;;;26.60;63.70;;;;;;4149358;28;19935;-51
2023/07/15 10:26:21;;;;;;;;;;;26.60;63.80;;;;;;4174439;28;19940;-51
2023/07/15 10:29:03;;;;;;;;;;;26.70;63.80;;;;;;4185222;28;20070;-47
2023/07/15 10:31:43;;;;;;;;;;;26.60;63.70;;;;;;4156628;28;20018;-50
2023/07/15 10:34:35;;;;;;;;;;;26.70;63.80;;;;;;4154574;28;20461;-48
2023/07/15 10:37:16;;;;;;;;;;;26.70;63.70;;;;;;4165902;28;20078;-49
2023/07/15 10:39:57;;;;;;;;;;;26.80;63.30;;;;;;4190016;28;19932;-54
2023/07/15 10:42:37;;;;;;;;;;;26.80;62.70;;;;;;4173072;28;19935;-54
2023/07/15 10:45:18;;;;;;;;;;;26.80;62.50;;;;;;4168546;28;20053;-54
2023/07/15 10:48:00;;;;;;;;;;;26.80;62.20;;;;;;4172594;28;19932;-50
2023/07/15 10:50:41;;;;;;;;;;;26.90;62.10;;;;;;4176723;28;19940;-49
2023/07/15 10:53:23;;;;;;;;;;;26.90;61.90;;;;;;4173037;28;19935;-50
2023/07/15 10:56:05;;;;;;;;;;;26.90;61.90;;;;;;4171691;28;19935;-45
2023/07/15 10:58:46;;;;;;;;;;;26.90;61.70;;;;;;4172362;28;20390;-47
2023/07/15 11:01:26;;;;;;;;;;;26.90;62.70;;;;;;4169247;28;19948;-44
2023/07/15 11:04:08;;;;;;;;;;;27.00;61.70;;;;;;4170683;28;20280;-47
2023/07/15 11:06:50;;;;;;;;;;;27.00;61.60;;;;;;4171789;28;19936;-46
2023/07/15 11:09:31;;;;;;;;;;;27.00;61.30;;;;;;4174899;28;19932;-47
2023/07/15 11:12:12;;;;;;;;;;;27.10;61.30;;;;;;4161424;28;19935;-54
2023/07/15 11:14:52;;;;;;;;;;;27.10;61.20;;;;;;4163701;28;19932;-54
2023/07/15 11:17:39;;;;;;;;;;;27.10;61.00;;;;;;4165208;28;19948;-51
2023/07/15 11:20:20;;;;;;;;;;;27.10;60.90;;;;;;4172806;28;20022;-49
2023/07/15 11:23:03;;;;;;;;;;;27.10;60.80;;;;;;4171912;28;20425;-54
2023/07/15 11:25:44;;;;;;;;;;;27.10;60.80;;;;;;4172834;28;19932;-51
2023/07/15 11:28:24;;;;;;;;;;;27.10;60.70;;;;;;4172005;28;19932;-51
2023/07/15 11:31:06;;;;;;;;;;;27.10;60.70;;;;;;4172840;28;19962;-54
2023/07/15 11:33:50;;;;;;;;;;;27.10;60.60;;;;;;4172243;28;19931;-54
2023/07/15 11:36:31;;;;;;;;;;;27.10;60.50;;;;;;4171006;28;19936;-53
2023/07/15 11:39:13;;;;;;;;;;;27.10;60.40;;;;;;4172288;28;20256;-53
2023/07/15 11:41:54;;;;;;;;;;;27.10;60.40;;;;;;4166210;28;20054;-48
2023/07/15 11:44:37;;;;;;;;;;;27.10;60.30;;;;;;4155592;28;19932;-47
2023/07/15 11:47:18;;;;;;;;;;;27.10;61.20;;;;;;4161300;28;20017;-47
2023/07/15 11:49:59;;;;;;;;;;;27.10;60.30;;;;;;4171720;28;20062;-49
2023/07/15 11:52:41;;;;;;;;;;;27.10;60.40;;;;;;4173031;28;20010;-45
2023/07/15 11:55:26;;;;;;;;;;;27.10;60.60;;;;;;4170200;28;20291;-47
2023/07/15 11:58:07;;;;;;;;;;;27.10;60.70;;;;;;4166613;28;19931;-45
2023/07/15 12:00:51;;;;;;;;;;;27.10;60.80;;;;;;4171530;28;20287;-47
2023/07/15 12:03:32;;;;;;;;;;;27.00;60.90;;;;;;4154553;28;19959;-51
2023/07/15 12:06:14;;;;;;;;;;;27.00;61.00;;;;;;4154707;28;19936;-53
2023/07/15 12:09:02;;;;;;;;;;;27.00;61.00;;;;;;4165749;28;19936;-52
2023/07/15 12:11:44;;;;;;;;;;;27.00;61.00;;;;;;4172091;28;20283;-53
2023/07/15 12:14:25;;;;;;;;;;;27.00;61.10;;;;;;4169378;28;19979;-55
2023/07/15 12:17:06;;;;;;;;;;;27.00;61.10;;;;;;4171050;28;19940;-53
2023/07/15 12:19:47;;;;;;;;;;;26.90;61.10;;;;;;4170656;28;19948;-54
2023/07/15 12:22:28;;;;;;;;;;;27.00;61.20;;;;;;4170252;28;19970;-54
2023/07/15 12:25:10;;;;;;;;;;;27.00;61.20;;;;;;4171017;28;19936;-46
2023/07/15 12:27:53;;;;;;;;;;;27.00;61.30;;;;;;4156904;28;19935;-52
2023/07/15 12:30:34;;;;;;;;;;;27.00;61.40;;;;;;4170705;28;19940;-47
2023/07/15 12:33:14;;;;;;;;;;;27.00;62.30;;;;;;4165764;28;19932;-51
2023/07/15 12:35:55;;;;;;;;;;;27.00;61.40;;;;;;4154276;28;19936;-51
2023/07/15 12:38:36;;;;;;;;;;;27.00;61.50;;;;;;4154536;28;19935;-47
2023/07/15 12:41:17;;;;;;;;;;;27.10;61.50;;;;;;4154957;28;19932;-50
2023/07/15 12:43:59;;;;;;;;;;;27.10;61.50;;;;;;4154006;28;19936;-51
2023/07/15 12:46:40;;;;;;;;;;;27.10;61.60;;;;;;4154729;28;19950;-50
2023/07/15 12:49:21;;;;;;;;;;;27.10;61.50;;;;;;4154675;28;19937;-49
2023/07/15 12:52:02;;;;;;;;;;;27.20;61.80;;;;;;4154728;28;20316;-52
2023/07/15 12:54:43;;;;;;;;;;;27.20;61.80;;;;;;4153979;28;19932;-52
2023/07/15 12:57:24;;;;;;;;;;;27.20;61.90;;;;;;4153326;28;19936;-53
2023/07/15 13:00:11;;;;;;;;;;;27.30;61.90;;;;;;4159578;28;19939;-54
2023/07/15 13:02:52;;;;;;;;;;;27.30;62.00;;;;;;4171080;28;20033;-51
2023/07/15 13:05:32;;;;;;;;;;;27.30;61.80;;;;;;4170934;28;20034;-50
2023/07/15 13:08:15;;;;;;;;;;;27.30;62.60;;;;;;4171038;28;20067;-54
2023/07/15 13:10:56;;;;;;;;;;;27.30;61.50;;;;;;4170524;28;20406;-52
2023/07/15 13:13:37;;;;;;;;;;;27.40;61.60;;;;;;4154581;28;20276;-52
2023/07/15 13:16:19;;;;;;;;;;;27.40;62.30;;;;;;4154087;28;20059;-52
2023/07/15 13:19:00;;;;;;;;;;;27.30;61.20;;;;;;4153943;28;20676;-52
2023/07/15 13:21:41;;;;;;;;;;;27.40;61.30;;;;;;4157815;28;20011;-54
2023/07/15 13:24:24;;;;;;;;;;;27.40;61.10;;;;;;4167218;28;20006;-51
2023/07/15 13:27:06;;;;;;;;;;;27.40;61.10;;;;;;4171996;28;20296;-53
2023/07/15 13:29:47;;;;;;;;;;;27.40;61.00;;;;;;4173073;28;19946;-53
2023/07/15 13:32:29;;;;;;;;;;;27.40;61.70;;;;;;4165373;28;20252;-50
2023/07/15 13:35:10;;;;;;;;;;;27.40;60.60;;;;;;4156533;28;20034;-50
2023/07/15 13:37:51;;;;;;;;;;;27.40;60.40;;;;;;4156994;28;19932;-53
2023/07/15 13:40:32;;;;;;;;;;;27.50;60.30;;;;;;4156743;28;19935;-54
2023/07/15 13:43:13;;;;;;;;;;;27.50;60.00;;;;;;4168517;28;19948;-52
2023/07/15 13:45:53;;;;;;;;;;;27.50;59.80;;;;;;4168580;28;20712;-52
2023/07/15 13:48:36;;;;;;;;;;;27.50;59.60;;;;;;4156939;28;19936;-55
2023/07/15 13:51:17;;;;;;;;;;;27.50;59.40;;;;;;4156549;28;19936;-52
2023/07/15 13:53:58;;;;;;;;;;;27.50;59.00;;;;;;4144704;28;19936;-52
2023/07/15 13:56:39;;;;;;;;;;;27.50;58.70;;;;;;4173558;28;20075;-50
2023/07/15 13:59:19;;;;;;;;;;;27.50;58.30;;;;;;4173300;28;19932;-50
2023/07/15 14:02:02;;;;;;;;;;;27.60;58.10;;;;;;4173167;28;19944;-53
2023/07/15 14:04:45;;;;;;;;;;;27.60;57.80;;;;;;4173270;28;19936;-51
2023/07/15 14:07:25;;;;;;;;;;;27.50;57.40;;;;;;4156645;28;19939;-52
2023/07/15 14:10:07;;;;;;;;;;;27.50;57.20;;;;;;4155878;28;20503;-54
2023/07/15 14:12:48;;;;;;;;;;;27.50;57.00;;;;;;4156281;28;20395;-54
2023/07/15 14:15:30;;;;;;;;;;;27.60;56.70;;;;;;4156227;28;19948;-53
2023/07/15 14:18:10;;;;;;;;;;;27.60;56.70;;;;;;4163468;28;19935;-56
2023/07/15 14:20:52;;;;;;;;;;;27.60;56.60;;;;;;4173198;28;19941;-53
2023/07/15 14:23:34;;;;;;;;;;;27.60;57.20;;;;;;4172561;28;20395;-52
2023/07/15 14:26:18;;;;;;;;;;;27.60;56.40;;;;;;4173381;28;19932;-55
2023/07/15 14:28:59;;;;;;;;;;;27.60;56.30;;;;;;4172130;28;19932;-53
2023/07/15 14:31:40;;;;;;;;;;;27.60;56.00;;;;;;4155870;28;19979;-54
2023/07/15 14:34:21;;;;;;;;;;;27.60;55.90;;;;;;4157210;28;19935;-53
2023/07/15 14:37:03;;;;;;;;;;;27.60;55.80;;;;;;4172666;28;19935;-54
2023/07/15 14:39:44;;;;;;;;;;;27.60;55.60;;;;;;4166893;28;20390;-54
2023/07/15 14:42:25;;;;;;;;;;;27.60;55.60;;;;;;4175554;28;19932;-55
2023/07/15 14:45:06;;;;;;;;;;;27.60;55.40;;;;;;4160866;28;19935;-54
2023/07/15 14:47:47;;;;;;;;;;;27.60;55.40;;;;;;4171966;28;19951;-47
2023/07/15 14:50:27;;;;;;;;;;;27.60;55.10;;;;;;4172168;28;19932;-48
2023/07/15 14:53:10;;;;;;;;;;;27.60;55.20;;;;;;4194386;28;20460;-52
2023/07/15 14:55:50;;;;;;;;;;;27.60;55.90;;;;;;4161023;28;20010;-51
2023/07/15 14:58:31;;;;;;;;;;;27.60;54.90;;;;;;4155904;28;19936;-48
2023/07/15 15:01:12;;;;;;;;;;;27.60;55.00;;;;;;4156006;28;20035;-48
2023/07/15 15:03:53;;;;;;;;;;;27.60;54.80;;;;;;4155916;28;19933;-55
2023/07/15 15:06:34;;;;;;;;;;;27.60;54.60;;;;;;4156098;28;19952;-55
2023/07/15 15:09:16;;;;;;;;;;;27.60;54.50;;;;;;4172123;28;20410;-56
2023/07/15 15:11:57;;;;;;;;;;;27.60;54.70;;;;;;4172464;28;19935;-55
2023/07/15 15:14:42;;;;;;;;;;;27.60;54.70;;;;;;4172435;28;20469;-55
2023/07/15 15:17:23;;;;;;;;;;;27.60;55.30;;;;;;4172096;28;20055;-53
2023/07/15 15:20:05;;;;;;;;;;;27.60;54.50;;;;;;4167424;28;19935;-52
2023/07/15 15:22:46;;;;;;;;;;;27.60;54.40;;;;;;4179670;28;19936;-53
2023/07/15 15:25:28;;;;;;;;;;;27.60;54.40;;;;;;4175408;28;20288;-55
2023/07/15 15:28:09;;;;;;;;;;;27.60;54.30;;;;;;4186078;28;19951;-54
2023/07/15 15:30:49;;;;;;;;;;;27.60;54.30;;;;;;4171328;28;20012;-47
2023/07/15 15:33:31;;;;;;;;;;;27.60;54.20;;;;;;4171813;28;19931;-50
2023/07/15 15:36:12;;;;;;;;;;;27.60;54.20;;;;;;4171749;28;20323;-55
2023/07/15 15:38:53;;;;;;;;;;;27.60;54.30;;;;;;4181036;28;19936;-52